createdAt,value
2022-12-11T00:01:24.899Z,101203.63
2022-12-11T00:03:51.746Z,101207.59
2022-12-11T00:06:21.133Z,101201.19
2022-12-11T00:08:50.655Z,101208.75
2022-12-11T00:11:17.390Z,101211.97
2022-12-11T00:13:44.204Z,101204.72
2022-12-11T00:16:11.115Z,101210.31
2022-12-11T00:18:38.076Z,101208.44
2022-12-11T00:21:06.660Z,101215.06
2022-12-11T00:23:35.633Z,101208.13
2022-12-11T00:26:10.493Z,101214.53
2022-12-11T00:28:36.969Z,101209.72
2022-12-11T00:31:05.719Z,101207.31
2022-12-11T00:33:32.200Z,101207.03
2022-12-11T00:35:58.745Z,101205.66
2022-12-11T00:38:25.211Z,101199.78
2022-12-11T00:40:52.006Z,101202.75
2022-12-11T00:43:18.453Z,101201.94
2022-12-11T00:45:46.858Z,101199.22
2022-12-11T00:48:13.556Z,101194.16
2022-12-11T00:50:40.808Z,101193.63
2022-12-11T00:53:08.066Z,101195.00
2022-12-11T00:55:40.034Z,101192.56
2022-12-11T00:58:07.134Z,101195.03
2022-12-11T01:00:34.142Z,101191.28
2022-12-11T01:03:01.147Z,101186.78
2022-12-11T01:05:27.901Z,101186.81
2022-12-11T01:07:54.390Z,101184.94
2022-12-11T01:10:23.997Z,101186.56
2022-12-11T01:12:55.895Z,101178.78
2022-12-11T01:15:25.220Z,101178.78
2022-12-11T01:17:52.506Z,101177.19
2022-12-11T01:20:20.932Z,101175.00
2022-12-11T01:22:47.503Z,101187.88
2022-12-11T01:25:14.428Z,101183.63
2022-12-11T01:27:40.877Z,101183.34
2022-12-11T01:30:08.429Z,101179.94
2022-12-11T01:32:35.890Z,101183.97
2022-12-11T01:35:08.224Z,101174.59
2022-12-11T01:37:35.109Z,101175.13
2022-12-11T01:40:02.213Z,101184.50
2022-12-11T01:42:29.624Z,101182.69
2022-12-11T01:45:23.870Z,101177.84
2022-12-11T01:47:59.224Z,101179.94
2022-12-11T01:50:26.267Z,101184.22
2022-12-11T01:52:53.302Z,101185.88
2022-12-11T01:55:20.646Z,101187.47
2022-12-11T01:57:50.560Z,101200.06
2022-12-11T02:00:17.569Z,101190.72
2022-12-11T02:02:44.414Z,101188.84
2022-12-11T02:05:11.882Z,101182.19
2022-12-11T02:07:52.445Z,101180.00
2022-12-11T02:10:19.338Z,101173.88
2022-12-11T02:12:57.964Z,101177.34
2022-12-11T02:15:40.261Z,101170.09
2022-12-11T02:18:12.595Z,101173.81
2022-12-11T02:21:06.611Z,101176.72
2022-12-11T02:23:58.360Z,101164.16
2022-12-11T02:26:34.634Z,101168.66
2022-12-11T02:29:04.198Z,101154.22
2022-12-11T02:31:46.883Z,101159.84
2022-12-11T02:34:28.705Z,101150.75
2022-12-11T02:37:00.135Z,101149.63
2022-12-11T02:39:28.404Z,101149.06
2022-12-11T02:41:56.426Z,101143.69
2022-12-11T02:44:27.042Z,101149.53
2022-12-11T02:46:54.944Z,101147.94
2022-12-11T02:49:23.276Z,101154.38
2022-12-11T02:51:52.318Z,101149.34
2022-12-11T02:54:25.289Z,101156.00
2022-12-11T02:56:57.713Z,101147.19
2022-12-11T02:59:32.891Z,101146.66
2022-12-11T03:01:59.528Z,101144.75
2022-12-11T03:04:26.246Z,101139.41
2022-12-11T03:06:59.944Z,101140.47
2022-12-11T03:09:28.414Z,101131.91
2022-12-11T03:11:55.002Z,101142.13
2022-12-11T03:14:21.488Z,101131.44
2022-12-11T03:17:05.708Z,101143.19
2022-12-11T03:19:37.195Z,101143.22
2022-12-11T03:22:11.018Z,101142.97
2022-12-11T03:24:59.617Z,101144.56
2022-12-11T03:27:42.448Z,101155.25
2022-12-11T03:30:14.239Z,101145.06
2022-12-11T03:32:49.291Z,101143.13
2022-12-11T03:35:33.906Z,101140.22
2022-12-11T03:38:11.822Z,101146.88
2022-12-11T03:40:42.199Z,101139.41
2022-12-11T03:43:10.891Z,101145.00
2022-12-11T03:45:39.122Z,101134.06
2022-12-11T03:48:07.272Z,101132.72
2022-12-11T03:50:35.376Z,101138.06
2022-12-11T03:53:03.790Z,101133.50
2022-12-11T03:55:32.823Z,101125.78
2022-12-11T03:57:59.361Z,101131.69
2022-12-11T04:00:25.854Z,101127.44
2022-12-11T04:03:13.527Z,101129.34
2022-12-11T04:05:53.337Z,101130.19
2022-12-11T04:08:21.157Z,101131.53
2022-12-11T04:10:47.984Z,101134.47
2022-12-11T04:13:14.474Z,101135.84
2022-12-11T04:15:41.271Z,101125.19
2022-12-11T04:18:26.639Z,101135.88
2022-12-11T04:21:13.356Z,101134.84
2022-12-11T04:23:58.676Z,101133.25
2022-12-11T04:26:25.416Z,101126.81
2022-12-11T04:28:51.917Z,101124.16
2022-12-11T04:31:21.583Z,101123.63
2022-12-11T04:33:48.121Z,101124.94
2022-12-11T04:36:15.175Z,101120.91
2022-12-11T04:38:41.669Z,101122.22
2022-12-11T04:41:11.284Z,101113.41
2022-12-11T04:43:38.018Z,101113.38
2022-12-11T04:46:09.994Z,101118.44
2022-12-11T04:48:37.485Z,101120.53
2022-12-11T04:51:04.421Z,101109.81
2022-12-11T04:53:31.661Z,101110.63
2022-12-11T04:55:58.148Z,101114.16
2022-12-11T04:58:26.066Z,101118.72
2022-12-11T05:00:53.042Z,101110.97
2022-12-11T05:03:19.756Z,101103.56
2022-12-11T05:05:51.184Z,101117.50
2022-12-11T05:08:18.998Z,101120.16
2022-12-11T05:10:50.066Z,101117.75
2022-12-11T05:13:16.728Z,101122.56
2022-12-11T05:15:43.173Z,101126.03
2022-12-11T05:18:09.699Z,101121.22
2022-12-11T05:20:36.223Z,101119.38
2022-12-11T05:23:02.684Z,101118.59
2022-12-11T05:25:29.139Z,101118.31
2022-12-11T05:27:55.584Z,101112.94
2022-12-11T05:30:22.029Z,101118.75
2022-12-11T05:32:48.491Z,101110.72
2022-12-11T05:35:15.120Z,101111.00
2022-12-11T05:37:41.673Z,101106.75
2022-12-11T05:40:08.937Z,101111.84
2022-12-11T05:42:35.388Z,101110.00
2022-12-11T05:45:01.816Z,101112.97
2022-12-11T05:47:28.337Z,101110.56
2022-12-11T05:49:54.740Z,101112.44
2022-12-11T05:52:21.757Z,101103.06
2022-12-11T05:54:50.434Z,101099.53
2022-12-11T05:57:17.227Z,101094.94
2022-12-11T05:59:43.688Z,101103.19
2022-12-11T06:02:10.305Z,101097.31
2022-12-11T06:04:36.781Z,101100.22
2022-12-11T06:07:03.413Z,101093.81
2022-12-11T06:09:30.000Z,101102.16
2022-12-11T06:11:56.428Z,101094.16
2022-12-11T06:14:22.848Z,101101.69
2022-12-11T06:16:50.115Z,101102.47
2022-12-11T06:19:18.431Z,101096.91
2022-12-11T06:21:45.872Z,101112.16
2022-12-11T06:24:12.520Z,101102.00
2022-12-11T06:26:39.190Z,101105.94
2022-12-11T06:29:09.186Z,101105.66
2022-12-11T06:31:39.215Z,101116.06
2022-12-11T06:34:06.049Z,101112.66
2022-12-11T06:36:32.547Z,101121.22
2022-12-11T06:38:59.070Z,101117.75
2022-12-11T06:41:25.811Z,101122.28
2022-12-11T06:43:52.493Z,101119.34
2022-12-11T06:46:19.914Z,101118.00
2022-12-11T06:48:47.603Z,101118.81
2022-12-11T06:51:19.669Z,101119.34
2022-12-11T06:53:56.903Z,101117.22
2022-12-11T06:56:24.369Z,101121.22
2022-12-11T06:58:51.950Z,101121.22
2022-12-11T07:01:21.937Z,101116.16
2022-12-11T07:03:49.186Z,101122.28
2022-12-11T07:06:16.236Z,101118.00
2022-12-11T07:08:43.590Z,101110.28
2022-12-11T07:11:13.356Z,101119.59
2022-12-11T07:13:40.308Z,101126.22
2022-12-11T07:16:10.796Z,101128.94
2022-12-11T07:18:42.098Z,101128.13
2022-12-11T07:21:11.837Z,101127.91
2022-12-11T07:23:38.330Z,101131.69
2022-12-11T07:26:06.303Z,101126.06
2022-12-11T07:28:33.229Z,101131.91
2022-12-11T07:30:59.868Z,101131.13
2022-12-11T07:33:26.430Z,101132.44
2022-12-11T07:35:52.882Z,101129.25
2022-12-11T07:38:19.308Z,101133.84
2022-12-11T07:40:45.795Z,101127.66
2022-12-11T07:43:12.201Z,101134.84
2022-12-11T07:45:39.275Z,101137.22
2022-12-11T07:48:06.267Z,101139.63
2022-12-11T07:50:36.605Z,101144.47
2022-12-11T07:53:06.112Z,101137.53
2022-12-11T07:55:32.600Z,101138.03
2022-12-11T07:57:59.036Z,101145.81
2022-12-11T08:00:25.496Z,101151.91
2022-12-11T08:02:52.019Z,101153.25
2022-12-11T08:05:18.468Z,101152.69
2022-12-11T08:07:44.915Z,101157.53
2022-12-11T08:10:11.394Z,101158.31
2022-12-11T08:12:38.480Z,101153.56
2022-12-11T08:15:05.444Z,101151.91
2022-12-11T08:17:36.631Z,101149.75
2022-12-11T08:20:06.611Z,101153.78
2022-12-11T08:22:34.171Z,101150.91
2022-12-11T08:25:00.595Z,101141.56
2022-12-11T08:27:27.014Z,101153.38
2022-12-11T08:29:53.477Z,101146.44
2022-12-11T08:32:19.936Z,101143.72
2022-12-11T08:34:46.336Z,101145.34
2022-12-11T08:37:13.637Z,101144.28
2022-12-11T08:39:40.084Z,101136.44
2022-12-11T08:42:07.106Z,101128.66
2022-12-11T08:44:33.579Z,101133.97
2022-12-11T08:47:00.006Z,101122.41
2022-12-11T08:49:29.851Z,101120.53
2022-12-11T08:51:59.228Z,101117.34
2022-12-11T08:54:25.680Z,101124.31
2022-12-11T08:56:56.414Z,101119.69
2022-12-11T08:59:25.614Z,101116.97
2022-12-11T09:01:52.461Z,101107.81
2022-12-11T09:04:18.943Z,101113.91
2022-12-11T09:06:45.405Z,101112.88
2022-12-11T09:09:12.649Z,101110.97
2022-12-11T09:11:39.075Z,101116.50
2022-12-11T09:14:07.936Z,101119.13
2022-12-11T09:16:37.777Z,101113.44
2022-12-11T09:19:06.172Z,101115.84
2022-12-11T09:21:32.784Z,101117.94
2022-12-11T09:24:01.388Z,101112.94
2022-12-11T09:26:30.036Z,101118.53
2022-12-11T09:28:56.773Z,101117.72
2022-12-11T09:31:28.897Z,101109.06
2022-12-11T09:33:57.849Z,101111.94
2022-12-11T09:36:24.485Z,101108.94
2022-12-11T09:38:51.432Z,101103.56
2022-12-11T09:41:20.963Z,101111.31
2022-12-11T09:43:51.785Z,101114.78
2022-12-11T09:46:21.617Z,101100.53
2022-12-11T09:48:53.489Z,101113.88
2022-12-11T09:51:30.468Z,101104.25
2022-12-11T09:54:01.723Z,101100.16
2022-12-11T09:56:57.731Z,101108.69
2022-12-11T09:59:38.092Z,101100.78
2022-12-11T10:02:16.841Z,101104.03
2022-12-11T10:04:59.186Z,101105.34
2022-12-11T10:07:33.919Z,101099.22
2022-12-11T10:10:38.929Z,101100.94
2022-12-11T10:13:34.819Z,101099.31
2022-12-11T10:16:07.461Z,101098.00
2022-12-11T10:18:34.286Z,101093.25
2022-12-11T10:21:02.497Z,101094.84
2022-12-11T10:23:42.017Z,101091.38
2022-12-11T10:26:17.602Z,101089.78
2022-12-11T10:28:44.489Z,101081.44
2022-12-11T10:31:16.087Z,101086.75
2022-12-11T10:34:02.616Z,101093.69
2022-12-11T10:36:32.372Z,101083.69
2022-12-11T10:38:59.258Z,101090.09
2022-12-11T10:41:49.073Z,101087.41
2022-12-11T10:44:27.348Z,101087.84
2022-12-11T10:47:10.849Z,101081.94
2022-12-11T10:49:42.633Z,101073.56
2022-12-11T10:52:38.165Z,101078.13
2022-12-11T10:55:08.023Z,101071.97
2022-12-11T10:57:37.049Z,101068.84
2022-12-11T11:00:08.714Z,101070.72
2022-12-11T11:02:38.381Z,101072.63
2022-12-11T11:05:17.972Z,101072.03
2022-12-11T11:07:44.560Z,101075.09
2022-12-11T11:10:11.035Z,101058.28
2022-12-11T11:12:42.123Z,101060.38
2022-12-11T11:15:17.585Z,101062.13
2022-12-11T11:17:54.616Z,101061.75
2022-12-11T11:20:26.247Z,101061.16
2022-12-11T11:23:00.038Z,101052.84
2022-12-11T11:25:29.405Z,101059.00
2022-12-11T11:28:34.319Z,101056.91
2022-12-11T11:31:08.879Z,101061.75
2022-12-11T11:33:37.828Z,101058.91
2022-12-11T11:36:07.015Z,101053.13
2022-12-11T11:38:52.177Z,101055.78
2022-12-11T11:41:31.735Z,101055.13
2022-12-11T11:44:02.166Z,101065.47
2022-12-11T11:46:49.177Z,101054.72
2022-12-11T11:49:15.567Z,101052.25
2022-12-11T11:51:52.604Z,101052.25
2022-12-11T11:54:34.513Z,101045.81
2022-12-11T11:57:33.326Z,101047.09
2022-12-11T12:00:10.755Z,101045.75
2022-12-11T12:02:37.801Z,101043.72
2022-12-11T12:05:04.851Z,101050.53
2022-12-11T12:07:50.695Z,101044.56
2022-12-11T12:10:21.892Z,101053.19
2022-12-11T12:13:03.293Z,101051.97
2022-12-11T12:15:53.994Z,101038.63
2022-12-11T12:18:38.847Z,101045.31
2022-12-11T12:21:18.230Z,101033.56
2022-12-11T12:23:57.132Z,101030.59
2022-12-11T12:26:33.645Z,101034.66
2022-12-11T12:29:17.963Z,101028.13
2022-12-11T12:32:02.909Z,101027.63
2022-12-11T12:34:44.441Z,101029.28
2022-12-11T12:37:45.181Z,101035.56
2022-12-11T12:40:17.875Z,101028.13
2022-12-11T12:43:05.665Z,101044.47
2022-12-11T12:45:35.201Z,101029.56
2022-12-11T12:48:02.098Z,101024.25
2022-12-11T12:50:43.573Z,101036.56
2022-12-11T12:53:18.237Z,101039.03
2022-12-11T12:55:46.550Z,101023.53
2022-12-11T12:58:40.155Z,101028.59
2022-12-11T13:01:15.476Z,101023.75
2022-12-11T13:04:04.049Z,101030.75
2022-12-11T13:06:34.956Z,101035.53
2022-12-11T13:09:17.769Z,101032.91
2022-12-11T13:11:45.717Z,101023.78
2022-12-11T13:14:15.492Z,101032.13
2022-12-11T13:16:45.247Z,101022.44
2022-12-11T13:19:24.114Z,101026.47
2022-12-11T13:22:00.032Z,101025.63
2022-12-11T13:24:28.537Z,101027.72
2022-12-11T13:26:55.689Z,101028.47
2022-12-11T13:29:40.432Z,101034.13
2022-12-11T13:32:09.878Z,101030.09
2022-12-11T13:34:39.264Z,101029.06
2022-12-11T13:37:07.454Z,101028.75
2022-12-11T13:39:39.689Z,101036.97
2022-12-11T13:42:20.292Z,101041.69
2022-12-11T13:44:48.636Z,101040.50
2022-12-11T13:47:18.656Z,101038.13
2022-12-11T13:49:50.027Z,101046.91
2022-12-11T13:52:23.049Z,101042.25
2022-12-11T13:54:51.967Z,101041.38
2022-12-11T13:57:23.163Z,101044.41
2022-12-11T13:59:53.264Z,101043.59
2022-12-11T14:02:25.577Z,101035.78
2022-12-11T14:04:57.328Z,101040.78
2022-12-11T14:07:28.776Z,101042.63
2022-12-11T14:10:01.551Z,101039.66
2022-12-11T14:12:30.349Z,101045.50
2022-12-11T14:14:59.820Z,101041.16
2022-12-11T14:17:29.710Z,101036.09
2022-12-11T14:20:00.507Z,101039.31
2022-12-11T14:22:29.104Z,101036.84
2022-12-11T14:25:02.736Z,101040.31
2022-12-11T14:27:29.716Z,101038.41
2022-12-11T14:29:56.627Z,101033.28
2022-12-11T14:32:37.024Z,101036.19
2022-12-11T14:35:07.341Z,101033.78
2022-12-11T14:37:37.099Z,101031.91
2022-12-11T14:40:15.792Z,101034.28
2022-12-11T14:42:51.758Z,101037.47
2022-12-11T14:45:28.982Z,101039.44
2022-12-11T14:47:58.320Z,101038.56
2022-12-11T14:50:43.781Z,101040.16
2022-12-11T14:53:15.465Z,101035.53
2022-12-11T14:55:42.344Z,101042.97
2022-12-11T14:58:22.350Z,101044.50
2022-12-11T15:01:05.561Z,101045.75
2022-12-11T15:03:34.817Z,101053.78
2022-12-11T15:06:02.922Z,101045.66
2022-12-11T15:08:35.197Z,101049.44
2022-12-11T15:11:12.139Z,101050.16
2022-12-11T15:14:00.223Z,101055.88
2022-12-11T15:16:31.290Z,101051.91
2022-12-11T15:18:58.893Z,101052.72
2022-12-11T15:21:30.960Z,101059.50
2022-12-11T15:23:59.530Z,101047.69
2022-12-11T15:26:39.565Z,101051.19
2022-12-11T15:29:36.898Z,101056.53
2022-12-11T15:32:09.272Z,101060.50
2022-12-11T15:34:42.370Z,101056.19
2022-12-11T15:37:22.371Z,101057.47
2022-12-11T15:39:48.929Z,101059.16
2022-12-11T15:42:20.898Z,101058.13
2022-12-11T15:44:47.560Z,101066.09
2022-12-11T15:47:15.576Z,101065.00
2022-12-11T15:49:42.375Z,101062.84
2022-12-11T15:52:08.813Z,101070.72
2022-12-11T15:54:35.280Z,101068.94
2022-12-11T15:57:05.296Z,101064.88
2022-12-11T15:59:33.057Z,101074.16
2022-12-11T16:01:59.647Z,101074.16
2022-12-11T16:04:26.332Z,101077.13
2022-12-11T16:06:53.188Z,101075.16
2022-12-11T16:09:19.642Z,101074.44
2022-12-11T16:11:46.060Z,101074.00
2022-12-11T16:14:12.501Z,101066.25
2022-12-11T16:16:38.966Z,101069.19
2022-12-11T16:19:05.439Z,101072.47
2022-12-11T16:21:31.959Z,101069.56
2022-12-11T16:23:58.424Z,101064.78
2022-12-11T16:26:25.419Z,101073.31
2022-12-11T16:28:51.836Z,101071.47
2022-12-11T16:31:18.356Z,101070.63
2022-12-11T16:33:44.914Z,101060.44
2022-12-11T16:36:17.612Z,101063.41
2022-12-11T16:38:51.413Z,101073.91
2022-12-11T16:41:19.964Z,101068.78
2022-12-11T16:43:46.379Z,101061.59
2022-12-11T16:46:12.885Z,101066.75
2022-12-11T16:48:39.450Z,101072.88
2022-12-11T16:51:05.993Z,101075.03
2022-12-11T16:53:32.467Z,101075.03
2022-12-11T16:55:58.925Z,101068.47
2022-12-11T16:58:25.386Z,101063.28
2022-12-11T17:00:51.879Z,101066.59
2022-12-11T17:03:19.488Z,101065.72
2022-12-11T17:05:46.012Z,101066.25
2022-12-11T17:08:12.546Z,101071.69
2022-12-11T17:10:41.472Z,101066.53
2022-12-11T17:13:08.065Z,101069.00
2022-12-11T17:15:34.581Z,101071.09
2022-12-11T17:18:01.067Z,101057.97
2022-12-11T17:20:27.544Z,101062.63
2022-12-11T17:22:54.040Z,101063.94
2022-12-11T17:25:22.431Z,101066.31
2022-12-11T17:27:49.555Z,101066.47
2022-12-11T17:30:16.211Z,101063.72
2022-12-11T17:32:42.724Z,101064.13
2022-12-11T17:35:09.902Z,101060.09
2022-12-11T17:37:36.498Z,101063.34
2022-12-11T17:40:03.407Z,101065.72
2022-12-11T17:42:29.854Z,101068.19
2022-12-11T17:44:56.321Z,101068.19
2022-12-11T17:47:23.684Z,101059.72
2022-12-11T17:49:50.147Z,101071.31
2022-12-11T17:52:16.613Z,101070.72
2022-12-11T17:54:43.080Z,101062.09
2022-12-11T17:57:09.784Z,101074.44
2022-12-11T17:59:36.290Z,101074.84
2022-12-11T18:02:02.876Z,101066.94
2022-12-11T18:04:29.479Z,101079.25
2022-12-11T18:06:56.053Z,101065.22
2022-12-11T18:09:22.478Z,101075.50
2022-12-11T18:11:48.977Z,101077.28
2022-12-11T18:14:17.586Z,101082.50
2022-12-11T18:16:44.294Z,101085.00
2022-12-11T18:19:10.873Z,101079.09
2022-12-11T18:21:41.371Z,101081.28
2022-12-11T18:24:08.928Z,101085.13
2022-12-11T18:26:37.424Z,101082.19
2022-12-11T18:29:04.452Z,101078.91
2022-12-11T18:31:31.031Z,101079.34
2022-12-11T18:33:57.983Z,101077.38
2022-12-11T18:36:24.429Z,101080.91
2022-12-11T18:38:51.106Z,101081.69
2022-12-11T18:41:18.948Z,101081.69
2022-12-11T18:43:45.923Z,101085.38
2022-12-11T18:46:15.691Z,101084.13
2022-12-11T18:48:43.285Z,101078.31
2022-12-11T18:51:13.123Z,101089.78
2022-12-11T18:53:39.906Z,101084.06
2022-12-11T18:56:08.715Z,101084.13
2022-12-11T18:58:35.178Z,101089.81
2022-12-11T19:01:09.953Z,101085.00
2022-12-11T19:03:37.187Z,101087.03
2022-12-11T19:06:12.625Z,101090.78
2022-12-11T19:08:39.682Z,101090.53
2022-12-11T19:11:07.073Z,101078.25
2022-12-11T19:13:34.193Z,101075.53
2022-12-11T19:16:00.955Z,101081.16
2022-12-11T19:18:27.857Z,101083.03
2022-12-11T19:21:03.095Z,101077.69
2022-12-11T19:23:34.752Z,101082.81
2022-12-11T19:26:01.799Z,101076.44
2022-12-11T19:28:30.042Z,101081.00
2022-12-11T19:30:56.993Z,101087.97
2022-12-11T19:33:23.653Z,101076.97
2022-12-11T19:35:50.107Z,101071.19
2022-12-11T19:38:16.638Z,101059.47
2022-12-11T19:40:44.723Z,101068.53
2022-12-11T19:43:11.721Z,101073.66
2022-12-11T19:45:38.476Z,101073.03
2022-12-11T19:48:05.583Z,101070.56
2022-12-11T19:50:32.079Z,101073.50
2022-12-11T19:52:58.539Z,101080.28
2022-12-11T19:55:25.020Z,101073.25
2022-12-11T19:57:51.498Z,101081.00
2022-12-11T20:00:18.849Z,101088.84
2022-12-11T20:02:45.345Z,101082.78
2022-12-11T20:05:12.139Z,101085.50
2022-12-11T20:07:38.902Z,101080.72
2022-12-11T20:10:06.111Z,101079.13
2022-12-11T20:12:32.660Z,101084.19
2022-12-11T20:14:59.131Z,101083.69
2022-12-11T20:17:25.679Z,101088.25
2022-12-11T20:19:52.389Z,101093.31
2022-12-11T20:22:18.854Z,101087.09
2022-12-11T20:24:45.666Z,101093.22
2022-12-11T20:27:12.564Z,101088.25
2022-12-11T20:29:39.412Z,101091.94
2022-12-11T20:32:07.320Z,101089.72
2022-12-11T20:34:33.962Z,101088.13
2022-12-11T20:37:00.471Z,101098.34
2022-12-11T20:39:27.248Z,101094.84
2022-12-11T20:41:53.693Z,101097.56
2022-12-11T20:44:20.244Z,101092.22
2022-12-11T20:46:46.704Z,101096.78
2022-12-11T20:49:13.308Z,101104.47
2022-12-11T20:51:40.825Z,101097.25
2022-12-11T20:54:07.356Z,101102.63
2022-12-11T20:56:33.990Z,101099.63
2022-12-11T20:59:00.816Z,101100.94
2022-12-11T21:01:30.402Z,101095.06
2022-12-11T21:03:57.870Z,101107.34
2022-12-11T21:06:28.401Z,101101.69
2022-12-11T21:08:54.905Z,101101.97
2022-12-11T21:11:21.694Z,101102.50
2022-12-11T21:13:48.214Z,101100.94
2022-12-11T21:16:14.740Z,101096.66
2022-12-11T21:18:43.420Z,101097.47
2022-12-11T21:21:10.128Z,101101.22
2022-12-11T21:23:36.629Z,101103.88
2022-12-11T21:26:03.356Z,101104.38
2022-12-11T21:28:35.234Z,101109.91
2022-12-11T21:31:04.803Z,101113.66
2022-12-11T21:33:31.384Z,101111.31
2022-12-11T21:35:59.450Z,101101.91
2022-12-11T21:38:26.144Z,101104.28
2022-12-11T21:40:53.509Z,101102.69
2022-12-11T21:43:20.208Z,101108.31
2022-12-11T21:46:02.453Z,101103.22
2022-12-11T21:48:29.239Z,101105.63
2022-12-11T21:50:56.088Z,101105.84
2022-12-11T21:53:22.547Z,101111.69
2022-12-11T21:55:48.973Z,101109.28
2022-12-11T21:58:15.655Z,101112.75
2022-12-11T22:00:42.283Z,101118.94
2022-12-11T22:03:08.841Z,101114.16
2022-12-11T22:05:35.313Z,101117.69
2022-12-11T22:08:02.249Z,101115.59
2022-12-11T22:10:29.242Z,101117.47
2022-12-11T22:12:55.784Z,101118.84
2022-12-11T22:15:22.353Z,101118.03
2022-12-11T22:17:48.863Z,101118.03
2022-12-11T22:20:15.417Z,101115.41
2022-12-11T22:22:42.233Z,101120.25
2022-12-11T22:25:09.643Z,101111.91
2022-12-11T22:27:36.480Z,101117.28
2022-12-11T22:30:03.749Z,101110.06
2022-12-11T22:32:30.305Z,101112.22
2022-12-11T22:34:57.727Z,101114.94
2022-12-11T22:37:25.309Z,101125.34
2022-12-11T22:39:51.861Z,101126.97
2022-12-11T22:42:18.398Z,101129.97
2022-12-11T22:44:44.956Z,101121.38
2022-12-11T22:47:11.570Z,101129.81
2022-12-11T22:49:38.033Z,101131.25
2022-12-11T22:52:04.869Z,101133.47
2022-12-11T22:54:31.376Z,101131.91
2022-12-11T22:56:57.855Z,101132.66
2022-12-11T22:59:24.373Z,101137.72
2022-12-11T23:01:50.888Z,101132.38
2022-12-11T23:04:17.387Z,101129.47
2022-12-11T23:06:43.839Z,101138.00
2022-12-11T23:09:10.917Z,101128.63
2022-12-11T23:11:38.424Z,101133.13
2022-12-11T23:14:07.746Z,101125.91
2022-12-11T23:16:34.522Z,101129.66
2022-12-11T23:19:01.120Z,101140.38
2022-12-11T23:21:28.589Z,101133.75
2022-12-11T23:23:56.261Z,101136.69
2022-12-11T23:26:23.158Z,101124.13
2022-12-11T23:28:50.206Z,101126.72
2022-12-11T23:31:17.883Z,101115.97
2022-12-11T23:33:44.959Z,101121.09
2022-12-11T23:36:12.266Z,101126.22
2022-12-11T23:38:40.497Z,101135.63
2022-12-11T23:41:08.472Z,101122.78
2022-12-11T23:43:36.232Z,101127.31
2022-12-11T23:46:13.782Z,101122.16
2022-12-11T23:48:40.945Z,101126.69
2022-12-11T23:51:09.138Z,101132.72
2022-12-11T23:53:35.725Z,101134.09
2022-12-11T23:56:08.492Z,101125.22
2022-12-11T23:58:37.006Z,101131.06
